sensor_id;sensor_type;location;lat;lon;timestamp;pressure;altitude;pressure_sealevel;temperature;humidity
49801;BME280;35698;50.232;30.540;2023-02-12T00:00:30;100444.83;;;1.31;100.00
49801;BME280;35698;50.232;30.540;2023-02-12T00:01:34;100452.59;;;1.35;100.00
49801;BME280;35698;50.232;30.540;2023-02-12T00:02:48;100438.52;;;1.46;100.00
49801;BME280;35698;50.232;30.540;2023-02-12T00:03:51;100450.09;;;1.28;100.00
49801;BME280;35698;50.232;30.540;2023-02-12T00:05:03;100442.86;;;1.46;100.00
49801;BME280;35698;50.232;30.540;2023-02-12T00:06:07;100462.07;;;1.39;100.00
49801;BME280;35698;50.232;30.540;2023-02-12T00:07:19;100432.55;;;1.40;100.00
49801;BME280;35698;50.232;30.540;2023-02-12T00:08:22;100443.87;;;1.37;100.00
49801;BME280;35698;50.232;30.540;2023-02-12T00:09:26;100456.87;;;1.39;100.00
49801;BME280;35698;50.232;30.540;2023-02-12T00:10:41;100456.87;;;1.39;100.00
49801;BME280;35698;50.232;30.540;2023-02-12T00:11:45;100449.86;;;1.42;100.00
49801;BME280;35698;50.232;30.540;2023-02-12T00:12:56;100453.13;;;1.55;100.00
49801;BME280;35698;50.232;30.540;2023-02-12T00:14:01;100446.43;;;1.40;100.00
49801;BME280;35698;50.232;30.540;2023-02-12T00:15:05;100453.38;;;1.40;100.00
49801;BME280;35698;50.232;30.540;2023-02-12T00:16:19;100446.90;;;1.63;100.00
49801;BME280;35698;50.232;30.540;2023-02-12T00:17:23;100446.30;;;1.48;100.00
49801;BME280;35698;50.232;30.540;2023-02-12T00:18:26;100449.81;;;1.45;100.00
49801;BME280;35698;50.232;30.540;2023-02-12T00:19:30;100453.38;;;1.40;100.00
49801;BME280;35698;50.232;30.540;2023-02-12T00:20:34;100460.55;;;1.25;100.00
49801;BME280;35698;50.232;30.540;2023-02-12T00:21:45;100456.96;;;1.33;100.00
49801;BME280;35698;50.232;30.540;2023-02-12T00:22:48;100454.44;;;1.28;100.00
49801;BME280;35698;50.232;30.540;2023-02-12T00:24:00;100452.49;;;1.41;100.00
49801;BME280;35698;50.232;30.540;2023-02-12T00:25:04;100469.93;;;1.36;100.00
49801;BME280;35698;50.232;30.540;2023-02-12T00:26:18;100462.95;;;1.38;100.00
49801;BME280;35698;50.232;30.540;2023-02-12T00:27:23;100464.89;;;1.25;100.00
49801;BME280;35698;50.232;30.540;2023-02-12T00:28:29;100466.59;;;1.27;100.00
49801;BME280;35698;50.232;30.540;2023-02-12T00:29:32;100462.31;;;1.23;100.00
49801;BME280;35698;50.232;30.540;2023-02-12T00:30:36;100469.33;;;1.18;100.00
49801;BME280;35698;50.232;30.540;2023-02-12T00:31:47;100473.58;;;1.24;100.00
49801;BME280;35698;50.232;30.540;2023-02-12T00:32:51;100480.71;;;1.11;100.00
49801;BME280;35698;50.232;30.540;2023-02-12T00:33:54;100463.56;;;0.98;100.00
49801;BME280;35698;50.232;30.540;2023-02-12T00:35:05;100472.23;;;0.98;100.00
49801;BME280;35698;50.232;30.540;2023-02-12T00:36:13;100474.12;;;0.87;100.00
49801;BME280;35698;50.232;30.540;2023-02-12T00:37:24;100479.98;;;1.02;100.00
49801;BME280;35698;50.232;30.540;2023-02-12T00:38:28;100485.34;;;0.91;100.00
49801;BME280;35698;50.232;30.540;2023-02-12T00:39:39;100474.72;;;1.06;100.00
49801;BME280;35698;50.232;30.540;2023-02-12T00:40:43;100480.03;;;0.98;100.00
49801;BME280;35698;50.232;30.540;2023-02-12T00:41:49;100489.53;;;1.01;100.00
49801;BME280;35698;50.232;30.540;2023-02-12T00:43:00;100491.20;;;1.05;100.00
49801;BME280;35698;50.232;30.540;2023-02-12T00:44:03;100483.45;;;1.02;100.00
49801;BME280;35698;50.232;30.540;2023-02-12T00:45:07;100497.36;;;0.99;100.00
49801;BME280;35698;50.232;30.540;2023-02-12T00:46:13;100491.30;;;0.99;100.00
49801;BME280;35698;50.232;30.540;2023-02-12T00:47:24;100499.77;;;1.13;100.00
49801;BME280;35698;50.232;30.540;2023-02-12T00:48:28;100500.78;;;1.03;100.00
49801;BME280;35698;50.232;30.540;2023-02-12T00:49:39;100506.48;;;1.28;100.00
49801;BME280;35698;50.232;30.540;2023-02-12T00:50:46;100506.69;;;1.14;100.00
49801;BME280;35698;50.232;30.540;2023-02-12T00:51:58;100501.98;;;1.39;100.00
49801;BME280;35698;50.232;30.540;2023-02-12T00:53:02;100510.76;;;1.32;100.00
49801;BME280;35698;50.232;30.540;2023-02-12T00:54:24;100508.14;;;1.34;100.00
49801;BME280;35698;50.232;30.540;2023-02-12T00:55:27;100511.69;;;1.28;100.00
49801;BME280;35698;50.232;30.540;2023-02-12T00:56:38;100514.89;;;1.45;100.00
49801;BME280;35698;50.232;30.540;2023-02-12T00:57:41;100528.13;;;1.31;100.00
49801;BME280;35698;50.232;30.540;2023-02-12T00:59:03;100525.58;;;1.27;100.00
49801;BME280;35698;50.232;30.540;2023-02-12T01:00:14;100519.38;;;1.36;100.00
49801;BME280;35698;50.232;30.540;2023-02-12T01:01:18;100519.50;;;1.28;100.00
49801;BME280;35698;50.232;30.540;2023-02-12T01:02:39;100535.06;;;1.31;100.00
49801;BME280;35698;50.232;30.540;2023-02-12T01:03:53;100528.03;;;1.38;100.00
49801;BME280;35698;50.232;30.540;2023-02-12T01:04:57;100522.01;;;1.34;100.00
49801;BME280;35698;50.232;30.540;2023-02-12T01:06:18;100533.23;;;1.38;100.00
49801;BME280;35698;50.232;30.540;2023-02-12T01:07:29;100525.19;;;1.53;100.00
49801;BME280;35698;50.232;30.540;2023-02-12T01:08:33;100539.20;;;1.44;100.00
49801;BME280;35698;50.232;30.540;2023-02-12T01:09:55;100543.48;;;1.48;100.00
49801;BME280;35698;50.232;30.540;2023-02-12T01:11:06;100527.84;;;1.50;100.00
49801;BME280;35698;50.232;30.540;2023-02-12T01:12:09;100532.35;;;1.39;100.00
49801;BME280;35698;50.232;30.540;2023-02-12T01:13:32;100541.86;;;1.41;100.00
49801;BME280;35698;50.232;30.540;2023-02-12T01:14:46;100533.79;;;1.58;100.00
49801;BME280;35698;50.232;30.540;2023-02-12T01:16:20;100537.39;;;1.49;100.00
49801;BME280;35698;50.232;30.540;2023-02-12T01:17:24;100537.69;;;1.29;100.00
49801;BME280;35698;50.232;30.540;2023-02-12T01:18:46;100530.58;;;1.41;100.00
49801;BME280;35698;50.232;30.540;2023-02-12T01:19:49;100534.05;;;1.41;100.00
49801;BME280;35698;50.232;30.540;2023-02-12T01:21:00;100536.53;;;1.49;100.00
49801;BME280;35698;50.232;30.540;2023-02-12T01:22:04;100533.30;;;1.33;100.00
49801;BME280;35698;50.232;30.540;2023-02-12T01:23:07;100531.60;;;1.30;100.00
49801;BME280;35698;50.232;30.540;2023-02-12T01:24:11;100541.91;;;1.38;100.00
49801;BME280;35698;50.232;30.540;2023-02-12T01:25:14;100544.57;;;1.34;100.00
49801;BME280;35698;50.232;30.540;2023-02-12T01:26:27;100547.86;;;1.46;100.00
49801;BME280;35698;50.232;30.540;2023-02-12T01:27:31;100548.94;;;1.31;100.00
49801;BME280;35698;50.232;30.540;2023-02-12T01:28:44;100548.78;;;1.42;100.00
49801;BME280;35698;50.232;30.540;2023-02-12T01:29:49;100553.20;;;1.37;100.00
49801;BME280;35698;50.232;30.540;2023-02-12T01:30:53;100556.57;;;1.44;100.00
49801;BME280;35698;50.232;30.540;2023-02-12T01:31:56;100554.80;;;1.46;100.00
49801;BME280;35698;50.232;30.540;2023-02-12T01:33:07;100558.03;;;1.61;100.00
49801;BME280;35698;50.232;30.540;2023-02-12T01:34:11;100563.31;;;1.57;100.00
49801;BME280;35698;50.232;30.540;2023-02-12T01:35:15;100563.29;;;1.58;100.00
49801;BME280;35698;50.232;30.540;2023-02-12T01:36:27;100565.83;;;1.63;100.00
49801;BME280;35698;50.232;30.540;2023-02-12T01:38:47;100581.20;;;1.77;100.00
49801;BME280;35698;50.232;30.540;2023-02-12T01:41:23;100576.80;;;1.80;100.00
49801;BME280;35698;50.232;30.540;2023-02-12T01:42:26;100591.14;;;1.53;100.00
49801;BME280;35698;50.232;30.540;2023-02-12T01:43:29;100587.72;;;1.50;100.00
49801;BME280;35698;50.232;30.540;2023-02-12T01:44:35;100590.14;;;1.62;100.00
49801;BME280;35698;50.232;30.540;2023-02-12T01:45:46;100590.14;;;1.62;100.00
49801;BME280;35698;50.232;30.540;2023-02-12T01:49:39;100604.05;;;1.61;100.00
49801;BME280;35698;50.232;30.540;2023-02-12T01:52:17;100609.14;;;1.69;100.00
49801;BME280;35698;50.232;30.540;2023-02-12T01:53:36;100618.77;;;1.63;100.00
49801;BME280;35698;50.232;30.540;2023-02-12T01:54:40;100608.38;;;1.62;100.00
49801;BME280;35698;50.232;30.540;2023-02-12T01:55:57;100618.08;;;1.51;100.00
49801;BME280;35698;50.232;30.540;2023-02-12T01:57:04;100616.25;;;1.57;100.00
49801;BME280;35698;50.232;30.540;2023-02-12T01:58:16;100615.06;;;1.77;100.00
49801;BME280;35698;50.232;30.540;2023-02-12T01:59:21;100621.44;;;1.59;100.00
49801;BME280;35698;50.232;30.540;2023-02-12T02:00:24;100621.99;;;1.78;100.00
49801;BME280;35698;50.232;30.540;2023-02-12T02:01:35;100625.22;;;1.93;100.00
49801;BME280;35698;50.232;30.540;2023-02-12T02:02:59;100628.78;;;1.88;100.00
49801;BME280;35698;50.232;30.540;2023-02-12T02:04:13;100638.25;;;1.93;100.00
49801;BME280;35698;50.232;30.540;2023-02-12T02:06:58;100634.61;;;2.04;100.00
49801;BME280;35698;50.232;30.540;2023-02-12T02:08:02;100643.41;;;1.96;100.00
49801;BME280;35698;50.232;30.540;2023-02-12T02:09:06;100643.55;;;1.87;100.00
49801;BME280;35698;50.232;30.540;2023-02-12T02:10:10;100655.65;;;1.91;100.00
49801;BME280;35698;50.232;30.540;2023-02-12T02:11:22;100665.98;;;1.97;100.00
49801;BME280;35698;50.232;30.540;2023-02-12T02:12:26;100661.72;;;1.92;100.00
49801;BME280;35698;50.232;30.540;2023-02-12T02:13:30;100671.50;;;1.76;100.00
49801;BME280;35698;50.232;30.540;2023-02-12T02:14:33;100661.27;;;1.66;100.00
49801;BME280;35698;50.232;30.540;2023-02-12T02:15:38;100668.24;;;1.63;100.00
49801;BME280;35698;50.232;30.540;2023-02-12T02:17:19;100671.37;;;1.85;100.00
49801;BME280;35698;50.232;30.540;2023-02-12T02:18:27;100680.95;;;1.83;100.00
49801;BME280;35698;50.232;30.540;2023-02-12T02:22:47;100678.05;;;2.03;100.00
49801;BME280;35698;50.232;30.540;2023-02-12T02:25:36;100686.12;;;1.86;100.00
49801;BME280;35698;50.232;30.540;2023-02-12T02:27:02;100679.31;;;1.76;100.00
49801;BME280;35698;50.232;30.540;2023-02-12T02:31:42;100687.84;;;1.87;100.00
49801;BME280;35698;50.232;30.540;2023-02-12T02:34:57;100687.06;;;1.81;100.00
49801;BME280;35698;50.232;30.540;2023-02-12T02:40:27;100697.64;;;1.72;100.00
49801;BME280;35698;50.232;30.540;2023-02-12T02:43:14;100704.72;;;1.62;100.00
49801;BME280;35698;50.232;30.540;2023-02-12T02:44:46;100706.52;;;1.57;100.00
49801;BME280;35698;50.232;30.540;2023-02-12T02:45:59;100710.05;;;1.53;100.00
49801;BME280;35698;50.232;30.540;2023-02-12T02:47:06;100724.09;;;1.40;100.00
49801;BME280;35698;50.232;30.540;2023-02-12T02:49:59;100714.44;;;1.49;100.00
49801;BME280;35698;50.232;30.540;2023-02-12T02:51:37;100727.51;;;1.45;100.00
49801;BME280;35698;50.232;30.540;2023-02-12T02:52:50;100730.23;;;1.34;100.00
49801;BME280;35698;50.232;30.540;2023-02-12T02:54:25;100737.22;;;1.30;100.00
49801;BME280;35698;50.232;30.540;2023-02-12T02:55:39;100744.04;;;1.41;100.00
49801;BME280;35698;50.232;30.540;2023-02-12T02:56:46;100752.02;;;1.25;100.00
49801;BME280;35698;50.232;30.540;2023-02-12T02:58:14;100751.97;;;1.30;100.00
49801;BME280;35698;50.232;30.540;2023-02-12T02:59:29;100773.52;;;1.43;100.00
49801;BME280;35698;50.232;30.540;2023-02-12T03:00:46;100782.20;;;1.43;100.00
49801;BME280;35698;50.232;30.540;2023-02-12T03:03:34;100769.03;;;1.55;100.00
49801;BME280;35698;50.232;30.540;2023-02-12T03:04:44;100778.77;;;1.40;100.00
49801;BME280;35698;50.232;30.540;2023-02-12T03:08:57;100794.66;;;1.12;100.00
49801;BME280;35698;50.232;30.540;2023-02-12T03:11:32;100795.73;;;0.91;100.00
49801;BME280;35698;50.232;30.540;2023-02-12T03:17:05;100834.94;;;0.72;100.00
49801;BME280;35698;50.232;30.540;2023-02-12T03:18:19;100832.23;;;0.84;100.00
49801;BME280;35698;50.232;30.540;2023-02-12T03:19:26;100847.95;;;0.69;100.00
49801;BME280;35698;50.232;30.540;2023-02-12T03:20:33;100848.92;;;0.54;100.00
49801;BME280;35698;50.232;30.540;2023-02-12T03:28:53;100856.70;;;0.58;100.00
49801;BME280;35698;50.232;30.540;2023-02-12T03:30:00;100851.52;;;0.54;100.00
49801;BME280;35698;50.232;30.540;2023-02-12T03:32:45;100877.49;;;0.58;100.00
49801;BME280;35698;50.232;30.540;2023-02-12T03:35:37;100886.19;;;0.54;100.00
49801;BME280;35698;50.232;30.540;2023-02-12T03:37:03;100880.92;;;0.63;100.00
49801;BME280;35698;50.232;30.540;2023-02-12T03:38:35;100889.64;;;0.56;100.00
49801;BME280;35698;50.232;30.540;2023-02-12T03:40:07;100894.84;;;0.55;100.00
49801;BME280;35698;50.232;30.540;2023-02-12T03:41:30;100899.08;;;0.71;100.00
49801;BME280;35698;50.232;30.540;2023-02-12T03:45:43;100903.47;;;0.63;100.00
49801;BME280;35698;50.232;30.540;2023-02-12T03:48:45;100916.49;;;0.58;100.00
49801;BME280;35698;50.232;30.540;2023-02-12T03:50:14;100924.23;;;0.69;100.00
49801;BME280;35698;50.232;30.540;2023-02-12T03:51:34;100923.34;;;0.73;100.00
49801;BME280;35698;50.232;30.540;2023-02-12T03:52:39;100933.82;;;0.59;100.00
49801;BME280;35698;50.232;30.540;2023-02-12T03:54:20;100940.72;;;0.65;100.00
49801;BME280;35698;50.232;30.540;2023-02-12T03:55:33;100950.30;;;0.55;100.00
49801;BME280;35698;50.232;30.540;2023-02-12T03:56:48;100947.74;;;0.48;100.00
49801;BME280;35698;50.232;30.540;2023-02-12T03:58:12;100950.38;;;0.40;100.00
49801;BME280;35698;50.232;30.540;2023-02-12T03:59:25;100951.28;;;0.30;100.00
49801;BME280;35698;50.232;30.540;2023-02-12T04:00:29;100963.45;;;0.17;100.00
49801;BME280;35698;50.232;30.540;2023-02-12T04:01:52;100960.89;;;0.08;100.00
49801;BME280;35698;50.232;30.540;2023-02-12T04:03:04;100979.92;;;0.15;100.00
49801;BME280;35698;50.232;30.540;2023-02-12T04:04:09;100971.30;;;0.02;100.00
49801;BME280;35698;50.232;30.540;2023-02-12T04:05:31;100969.55;;;0.06;100.00
49801;BME280;35698;50.232;30.540;2023-02-12T04:06:35;100982.59;;;-0.01;100.00
49801;BME280;35698;50.232;30.540;2023-02-12T04:07:47;100966.90;;;0.24;100.00
49801;BME280;35698;50.232;30.540;2023-02-12T04:08:52;100993.84;;;0.00;100.00
49801;BME280;35698;50.232;30.540;2023-02-12T04:09:57;100984.32;;;-0.01;100.00
49801;BME280;35698;50.232;30.540;2023-02-12T04:18:45;101012.03;;;-0.06;100.00
49801;BME280;35698;50.232;30.540;2023-02-12T04:21:42;101024.16;;;-0.07;100.00
49801;BME280;35698;50.232;30.540;2023-02-12T04:26:41;101028.50;;;-0.18;100.00
49801;BME280;35698;50.232;30.540;2023-02-12T04:27:56;101048.41;;;-0.21;100.00
49801;BME280;35698;50.232;30.540;2023-02-12T04:30:46;101034.56;;;-0.32;100.00
49801;BME280;35698;50.232;30.540;2023-02-12T04:32:03;101033.70;;;-0.30;100.00
49801;BME280;35698;50.232;30.540;2023-02-12T04:33:18;101058.79;;;-0.34;100.00
49801;BME280;35698;50.232;30.540;2023-02-12T04:34:54;101035.42;;;-0.41;100.00
49801;BME280;35698;50.232;30.540;2023-02-12T04:36:25;101060.52;;;-0.36;100.00
49801;BME280;35698;50.232;30.540;2023-02-12T04:37:56;101052.73;;;-0.46;100.00
49801;BME280;35698;50.232;30.540;2023-02-12T04:39:14;101057.92;;;-0.25;100.00
49801;BME280;35698;50.232;30.540;2023-02-12T04:40:37;101058.79;;;-0.37;100.00
49801;BME280;35698;50.232;30.540;2023-02-12T04:41:41;101065.71;;;-0.37;100.00
49801;BME280;35698;50.232;30.540;2023-02-12T04:42:53;101058.80;;;-0.30;100.00
49801;BME280;35698;50.232;30.540;2023-02-12T04:43:57;101060.52;;;-0.49;100.00
49801;BME280;35698;50.232;30.540;2023-02-12T04:45:00;101061.38;;;-0.47;100.00
49801;BME280;35698;50.232;30.540;2023-02-12T04:46:27;101071.77;;;-0.32;100.00
49801;BME280;35698;50.232;30.540;2023-02-12T04:47:31;101072.62;;;-0.47;100.00
49801;BME280;35698;50.232;30.540;2023-02-12T04:52:02;101070.90;;;-0.43;100.00
49801;BME280;35698;50.232;30.540;2023-02-12T04:53:06;101076.95;;;-0.44;100.00
49801;BME280;35698;50.232;30.540;2023-02-12T04:54:28;101087.33;;;-0.50;100.00
49801;BME280;35698;50.232;30.540;2023-02-12T04:55:40;101085.61;;;-0.42;100.00
49801;BME280;35698;50.232;30.540;2023-02-12T04:57:02;101095.12;;;-0.49;100.00
49801;BME280;35698;50.232;30.540;2023-02-12T04:58:14;101081.28;;;-0.40;100.00
49801;BME280;35698;50.232;30.540;2023-02-12T04:59:35;101095.98;;;-0.48;100.00
49801;BME280;35698;50.232;30.540;2023-02-12T05:00:39;101098.58;;;-0.53;100.00
49801;BME280;35698;50.232;30.540;2023-02-12T05:02:01;101108.08;;;-0.56;100.00
49801;BME280;35698;50.232;30.540;2023-02-12T05:03:04;101106.32;;;-0.70;100.00
49801;BME280;35698;50.232;30.540;2023-02-12T05:04:11;101106.34;;;-0.57;100.00
49801;BME280;35698;50.232;30.540;2023-02-12T05:05:14;101111.53;;;-0.60;100.00
49801;BME280;35698;50.232;30.540;2023-02-12T05:06:25;101111.54;;;-0.57;100.00
49801;BME280;35698;50.232;30.540;2023-02-12T05:07:47;101119.32;;;-0.60;100.00
49801;BME280;35698;50.232;30.540;2023-02-12T05:08:53;101122.78;;;-0.60;100.00
49801;BME280;35698;50.232;30.540;2023-02-12T05:10:15;101127.09;;;-0.65;100.00
49801;BME280;35698;50.232;30.540;2023-02-12T05:11:26;101143.52;;;-0.66;100.00
49801;BME280;35698;50.232;30.540;2023-02-12T05:12:51;101133.10;;;-0.78;100.00
49801;BME280;35698;50.232;30.540;2023-02-12T05:14:02;101133.16;;;-0.60;100.00
49801;BME280;35698;50.232;30.540;2023-02-12T05:15:24;101146.98;;;-0.67;100.00
49801;BME280;35698;50.232;30.540;2023-02-12T05:16:35;101143.56;;;-0.52;100.00
49801;BME280;35698;50.232;30.540;2023-02-12T05:17:57;101151.32;;;-0.61;100.00
49801;BME280;35698;50.232;30.540;2023-02-12T05:19:08;101145.27;;;-0.62;100.00
49801;BME280;35698;50.232;30.540;2023-02-12T05:46:17;101143.51;;;-0.71;100.00
49801;BME280;35698;50.232;30.540;2023-02-12T05:47:28;101193.63;;;-0.90;100.00
49801;BME280;35698;50.232;30.540;2023-02-12T05:48:32;101203.12;;;-0.92;100.00
49801;BME280;35698;50.232;30.540;2023-02-12T05:49:36;101210.86;;;-1.00;100.00
49801;BME280;35698;50.232;30.540;2023-02-12T05:50:39;101210.02;;;-0.94;100.00
49801;BME280;35698;50.232;30.540;2023-02-12T05:51:50;101214.44;;;-0.69;100.00
49801;BME280;35698;50.232;30.540;2023-02-12T05:52:54;101209.19;;;-0.81;100.00
49801;BME280;35698;50.232;30.540;2023-02-12T05:54:00;101222.20;;;-0.73;100.00
49801;BME280;35698;50.232;30.540;2023-02-12T05:55:05;101221.38;;;-0.63;100.00
49801;BME280;35698;50.232;30.540;2023-02-12T05:56:27;101228.34;;;-0.54;100.00
49801;BME280;35698;50.232;30.540;2023-02-12T05:57:31;101222.26;;;-0.59;100.00
49801;BME280;35698;50.232;30.540;2023-02-12T05:58:34;101228.30;;;-0.63;100.00
49801;BME280;35698;50.232;30.540;2023-02-12T05:59:38;101229.20;;;-0.55;100.00
49801;BME280;35698;50.232;30.540;2023-02-12T06:00:41;101216.19;;;-0.63;100.00
49801;BME280;35698;50.232;30.540;2023-02-12T06:01:53;101234.43;;;-0.43;100.00
49801;BME280;35698;50.232;30.540;2023-02-12T06:02:56;101227.48;;;-0.50;100.00
49801;BME280;35698;50.232;30.540;2023-02-12T06:04:01;101239.59;;;-0.49;100.00
49801;BME280;35698;50.232;30.540;2023-02-12T06:05:12;101245.70;;;-0.37;100.00
49801;BME280;35698;50.232;30.540;2023-02-12T06:06:16;101249.93;;;-0.61;100.00
49801;BME280;35698;50.232;30.540;2023-02-12T06:07:27;101243.93;;;-0.48;100.00
49801;BME280;35698;50.232;30.540;2023-02-12T06:08:31;101244.73;;;-0.61;100.00
49801;BME280;35698;50.232;30.540;2023-02-12T06:09:34;101246.48;;;-0.60;100.00
49801;BME280;35698;50.232;30.540;2023-02-12T06:10:39;101254.20;;;-0.73;100.00
49801;BME280;35698;50.232;30.540;2023-02-12T06:11:50;101268.94;;;-0.66;100.00
49801;BME280;35698;50.232;30.540;2023-02-12T06:12:54;101270.63;;;-0.74;100.00
49801;BME280;35698;50.232;30.540;2023-02-12T06:14:06;101268.06;;;-0.69;100.00
49801;BME280;35698;50.232;30.540;2023-02-12T06:15:10;101270.64;;;-0.71;100.00
49801;BME280;35698;50.232;30.540;2023-02-12T06:16:24;101260.33;;;-0.58;100.00
49801;BME280;35698;50.232;30.540;2023-02-12T06:17:28;101271.50;;;-0.72;100.00
49801;BME280;35698;50.232;30.540;2023-02-12T06:18:35;101270.67;;;-0.66;100.00
49801;BME280;35698;50.232;30.540;2023-02-12T06:19:39;101278.46;;;-0.64;100.00
49801;BME280;35698;50.232;30.540;2023-02-12T06:20:43;101283.63;;;-0.69;100.00
49801;BME280;35698;50.232;30.540;2023-02-12T06:21:54;101265.55;;;-0.52;100.00
49801;BME280;35698;50.232;30.540;2023-02-12T06:22:57;101275.03;;;-0.59;100.00
49801;BME280;35698;50.232;30.540;2023-02-12T06:24:01;101294.91;;;-0.62;100.00
49801;BME280;35698;50.232;30.540;2023-02-12T06:25:05;101298.33;;;-0.70;100.00
49801;BME280;35698;50.232;30.540;2023-02-12T06:26:18;101294.04;;;-0.63;100.00
49801;BME280;35698;50.232;30.540;2023-02-12T06:27:22;101289.69;;;-0.69;100.00
49801;BME280;35698;50.232;30.540;2023-02-12T06:28:25;101290.56;;;-0.67;100.00
49801;BME280;35698;50.232;30.540;2023-02-12T06:29:29;101288.81;;;-0.71;100.00
49801;BME280;35698;50.232;30.540;2023-02-12T06:30:33;101289.70;;;-0.66;100.00
49801;BME280;35698;50.232;30.540;2023-02-12T06:31:44;101292.35;;;-0.55;100.00
49801;BME280;35698;50.232;30.540;2023-02-12T06:32:49;101304.39;;;-0.69;100.00
49801;BME280;35698;50.232;30.540;2023-02-12T06:34:02;101306.16;;;-0.60;100.00
49801;BME280;35698;50.232;30.540;2023-02-12T06:35:06;101300.87;;;-0.79;100.00
49801;BME280;35698;50.232;30.540;2023-02-12T06:36:11;101295.75;;;-0.67;100.00
49801;BME280;35698;50.232;30.540;2023-02-12T06:37:22;101296.70;;;-0.49;100.00
49801;BME280;35698;50.232;30.540;2023-02-12T06:38:25;101308.76;;;-0.60;100.00
49801;BME280;35698;50.232;30.540;2023-02-12T06:39:40;101301.91;;;-0.46;100.00
49801;BME280;35698;50.232;30.540;2023-02-12T06:40:44;101311.30;;;-0.70;100.00
49801;BME280;35698;50.232;30.540;2023-02-12T06:42:02;101304.41;;;-0.64;100.00
49801;BME280;35698;50.232;30.540;2023-02-12T06:43:06;101313.00;;;-0.75;100.00
49801;BME280;35698;50.232;30.540;2023-02-12T06:44:13;101305.28;;;-0.62;100.00
49801;BME280;35698;50.232;30.540;2023-02-12T06:45:16;101301.86;;;-0.57;100.00
49801;BME280;35698;50.232;30.540;2023-02-12T06:46:27;101307.98;;;-0.43;100.00
49801;BME280;35698;50.232;30.540;2023-02-12T06:47:31;101314.81;;;-0.60;100.00
49801;BME280;35698;50.232;30.540;2023-02-12T06:48:35;101309.71;;;-0.43;100.00
49801;BME280;35698;50.232;30.540;2023-02-12T06:49:38;101315.75;;;-0.47;100.00
49801;BME280;35698;50.232;30.540;2023-02-12T06:50:49;101315.80;;;-0.38;100.00
49801;BME280;35698;50.232;30.540;2023-02-12T06:51:53;101320.97;;;-0.41;100.00
49801;BME280;35698;50.232;30.540;2023-02-12T06:52:57;101321.86;;;-0.38;100.00
49801;BME280;35698;50.232;30.540;2023-02-12T06:54:01;101313.20;;;-0.37;100.00
49801;BME280;35698;50.232;30.540;2023-02-12T06:55:23;101316.56;;;-0.57;100.00
49801;BME280;35698;50.232;30.540;2023-02-12T06:56:34;101320.12;;;-0.37;100.00
49801;BME280;35698;50.232;30.540;2023-02-12T06:57:38;101314.94;;;-0.37;100.00
49801;BME280;35698;50.232;30.540;2023-02-12T06:58:43;101326.13;;;-0.49;100.00
49801;BME280;35698;50.232;30.540;2023-02-12T06:59:48;101333.08;;;-0.43;100.00
49801;BME280;35698;50.232;30.540;2023-02-12T07:02:27;101336.63;;;-0.23;100.00
49801;BME280;35698;50.232;30.540;2023-02-12T07:03:31;101333.13;;;-0.31;100.00
49801;BME280;35698;50.232;30.540;2023-02-12T07:04:37;101351.30;;;-0.32;100.00
49801;BME280;35698;50.232;30.540;2023-02-12T07:05:41;101350.41;;;-0.38;100.00
49801;BME280;35698;50.232;30.540;2023-02-12T07:07:04;101340.04;;;-0.35;100.00
49801;BME280;35698;50.232;30.540;2023-02-12T07:08:15;101346.12;;;-0.31;100.00
49801;BME280;35698;50.232;30.540;2023-02-12T07:09:18;101336.56;;;-0.38;100.00
49801;BME280;35698;50.232;30.540;2023-02-12T07:10:22;101343.55;;;-0.25;100.00
49801;BME280;35698;50.232;30.540;2023-02-12T07:11:34;101334.91;;;-0.21;100.00
49801;BME280;35698;50.232;30.540;2023-02-12T07:12:40;101329.66;;;-0.33;100.00
49801;BME280;35698;50.232;30.540;2023-02-12T07:13:51;101327.14;;;-0.15;100.00
49801;BME280;35698;50.232;30.540;2023-02-12T07:14:55;101342.70;;;-0.19;100.00
49801;BME280;35698;50.232;30.540;2023-02-12T07:18:43;101347.95;;;0.02;100.00
49801;BME280;35698;50.232;30.540;2023-02-12T07:20:05;101348.80;;;-0.11;100.00
49801;BME280;35698;50.232;30.540;2023-02-12T07:21:16;101353.20;;;0.17;100.00
49801;BME280;35698;50.232;30.540;2023-02-12T07:22:20;101349.70;;;0.05;100.00
49801;BME280;35698;50.232;30.540;2023-02-12T07:23:47;101347.09;;;0.03;100.00
49801;BME280;35698;50.232;30.540;2023-02-12T07:24:52;101347.12;;;0.11;100.00
49801;BME280;35698;50.232;30.540;2023-02-12T07:26:11;101338.50;;;0.25;100.00
49801;BME280;35698;50.232;30.540;2023-02-12T07:27:15;101351.48;;;0.21;100.00
49801;BME280;35698;50.232;30.540;2023-02-12T07:28:36;101349.75;;;0.23;100.00
49801;BME280;35698;50.232;30.540;2023-02-12T07:29:48;101361.06;;;0.40;100.00
49801;BME280;35698;50.232;30.540;2023-02-12T07:30:52;101358.45;;;0.39;100.00
49801;BME280;35698;50.232;30.540;2023-02-12T07:32:14;101362.80;;;0.44;100.00
49801;BME280;35698;50.232;30.540;2023-02-12T07:33:26;101373.19;;;0.38;100.00
49801;BME280;35698;50.232;30.540;2023-02-12T07:34:29;101372.26;;;0.18;100.00
49801;BME280;35698;50.232;30.540;2023-02-12T07:35:51;101378.37;;;0.32;100.00
49801;BME280;35698;50.232;30.540;2023-02-12T07:36:54;101372.27;;;0.22;100.00
49801;BME280;35698;50.232;30.540;2023-02-12T07:38:05;101380.13;;;0.42;100.00
49801;BME280;35698;50.232;30.540;2023-02-12T07:39:10;101369.71;;;0.36;100.00
49801;BME280;35698;50.232;30.540;2023-02-12T07:40:32;101371.45;;;0.37;100.00
49801;BME280;35698;50.232;30.540;2023-02-12T07:41:43;101373.23;;;0.62;100.00